Terminal Aerodrome Forecast
Issued by NWS

Home | Current Version | Previous Version | Text Only | Print | Product List | Glossary On
Versions: 1 2 3 4 5 6 7 8 9 10 11 12 13 14 15 16 17 18
003
FTUS43 KOAX 240551
TAFCDR
TAF
KCDR 240551Z 2406/2506 03010KT 1SM BR OVC003
     FM240800 02008KT 1SM -SN BR OVC007
     FM241800 34015KT 2SM -SN OVC010=

USA.gov is the U.S. government's official web portal to all federal, state and local government web resources and services.